Aviation Digital Data Service (ADDS)

Output produced by METARs form (1347 UTC 21 November 2018)
found at http://aviationweather.gov/metar/data/
 
KAEX 211138Z 2112/2212 VRB04KT P6SM FEW250 
     TEMPO 2112/2114 4SM BR 
     FM211600 04006KT P6SM SCT250 
     FM220000 VRB03KT P6SM BKN150